Wetterstation Vordersexau
Wetterdaten: Woche 08.02.16 - 14.02.16 (KW6)
Datum Zeit Temp. A. Feuchte A. Luftdruck Regen Wind Richtung Taupunkt Windchill Windben
08.02.2016 00:00 6,9 C 71 % 1009,6 hPa 0,0 l/m 21,4 km/h W 2,0 C -1,2 C 11,9 km/h
08.02.2016 01:00 6,9 C 71 % 1008,7 hPa 0,0 l/m 24,0 km/h W-SW 2,0 C -2,1 C 13,3 km/h
08.02.2016 02:00 6,8 C 71 % 1008,5 hPa 0,0 l/m 33,0 km/h SW 1,9 C -4,5 C 18,4 km/h
08.02.2016 03:00 7,6 C 68 % 1007,8 hPa 0,0 l/m 26,6 km/h SW 2,1 C -1,9 C 14,8 km/h
08.02.2016 04:00 8,3 C 63 % 1006,8 hPa 0,0 l/m 27,9 km/h W-SW 1,7 C -1,2 C 15,5 km/h
08.02.2016 05:00 9,1 C 58 % 1006,5 hPa 0,0 l/m 9,1 km/h W 1,3 C 7,2 C 5,0 km/h
08.02.2016 06:00 9,4 C 61 % 1005,7 hPa 0,0 l/m 20,7 km/h SW 2,3 C 2,3 C 11,5 km/h
08.02.2016 07:00 10,1 C 65 % 1005,0 hPa 0,0 l/m 20,1 km/h W-SW 3,8 C 3,4 C 11,2 km/h
08.02.2016 08:00 10,8 C 64 % 1004,5 hPa 0,0 l/m 20,7 km/h S-SW 4,3 C 4,1 C 11,5 km/h
08.02.2016 09:00 11,8 C 60 % 1003,0 hPa 0,0 l/m 34,3 km/h SW 4,3 C 2,4 C 19,1 km/h
08.02.2016 10:00 12,9 C 57 % 1002,3 hPa 0,0 l/m 31,8 km/h W-SW 4,6 C 4,4 C 17,6 km/h
08.02.2016 11:00 13,2 C 60 % 1001,7 hPa 0,0 l/m 64,8 km/h SW 5,6 C 1,7 C 36,0 km/h
08.02.2016 12:00 12,3 C 63 % 1001,4 hPa 0,0 l/m 35,6 km/h W-SW 5,5 C 2,9 C 19,8 km/h
08.02.2016 13:00 12,9 C 66 % 1000,7 hPa 0,0 l/m 35,0 km/h NW 6,7 C 3,9 C 19,4 km/h
08.02.2016 14:00 10,3 C 78 % 1001,9 hPa 0,0 l/m 49,2 km/h NW 6,6 C -1,8 C 27,4 km/h
08.02.2016 15:00 9,4 C 83 % 1002,0 hPa 0,4 l/m 25,3 km/h W 6,7 C 0,9 C 14,0 km/h
08.02.2016 16:00 9,6 C 86 % 1002,6 hPa 1,2 l/m 20,7 km/h W-SW 7,4 C 2,5 C 11,5 km/h
08.02.2016 17:00 9,5 C 85 % 1003,1 hPa 0,0 l/m 31,8 km/h W 7,1 C -0,4 C 17,6 km/h
08.02.2016 18:00 9,1 C 85 % 1004,2 hPa 0,4 l/m 26,6 km/h W 6,7 C 0,2 C 14,8 km/h
08.02.2016 19:00 8,1 C 87 % 1005,0 hPa 1,2 l/m 22,0 km/h W-NW 6,1 C 0,2 C 12,2 km/h
08.02.2016 20:00 8,6 C 85 % 1005,6 hPa 0,4 l/m 42,8 km/h W 6,2 C -3,6 C 23,8 km/h
08.02.2016 21:00 9,0 C 81 % 1006,4 hPa 0,0 l/m 44,7 km/h W-SW 5,9 C -3,2 C 24,8 km/h
08.02.2016 22:00 8,9 C 81 % 1006,5 hPa 0,0 l/m 21,4 km/h W 5,8 C 1,4 C 11,9 km/h
08.02.2016 23:00 7,8 C 86 % 1007,0 hPa 0,4 l/m 18,1 km/h S-SW 5,6 C 1,2 C 10,1 km/h
09.02.2016 00:00 7,9 C 83 % 1007,3 hPa 0,0 l/m 14,9 km/h S-SW 5,2 C 2,6 C 8,3 km/h
09.02.2016 01:00 8,1 C 80 % 1007,0 hPa 0,0 l/m 14,9 km/h SW 4,9 C 2,9 C 8,3 km/h
09.02.2016 02:00 8,1 C 78 % 1006,9 hPa 0,0 l/m 16,2 km/h W-SW 4,5 C 2,3 C 9,0 km/h
09.02.2016 03:00 7,4 C 83 % 1006,0 hPa 0,0 l/m 11,0 km/h SW 4,7 C 4,1 C 6,1 km/h
09.02.2016 04:00 8,9 C 76 % 1005,4 hPa 0,0 l/m 7,8 km/h W-SW 4,9 C 7,8 C 4,3 km/h
09.02.2016 05:00 9,1 C 76 % 1004,8 hPa 0,0 l/m 24,0 km/h SW 5,1 C 0,9 C 13,3 km/h
09.02.2016 06:00 8,1 C 83 % 1003,5 hPa 0,0 l/m 25,9 km/h W-SW 5,4 C -1,0 C 14,4 km/h
09.02.2016 07:00 7,7 C 86 % 1002,0 hPa 0,0 l/m 0,0 km/h S-SO 5,5 C 7,7 C 0,0 km/h
09.02.2016 08:00 7,3 C 88 % 1000,0 hPa 0,8 l/m 7,8 km/h S-SO 5,4 C 6,2 C 4,3 km/h
09.02.2016 09:00 8,4 C 87 % 997,9 hPa 0,4 l/m 7,1 km/h W-SW 6,4 C 7,9 C 4,0 km/h
09.02.2016 10:00 10,6 C 80 % 996,1 hPa 0,0 l/m 19,4 km/h W 7,3 C 4,3 C 10,8 km/h
09.02.2016 11:00 12,7 C 69 % 994,3 hPa 0,0 l/m 11,7 km/h SW 7,2 C 9,8 C 6,5 km/h
09.02.2016 12:00 12,3 C 71 % 992,6 hPa 0,0 l/m 27,9 km/h S-SW 7,2 C 4,3 C 15,5 km/h
09.02.2016 13:00 9,8 C 84 % 991,4 hPa 1,2 l/m 14,9 km/h SW 7,2 C 4,9 C 8,3 km/h
09.02.2016 14:00 12,1 C 73 % 989,4 hPa 0,0 l/m 33,0 km/h W-SW 7,4 C 3,1 C 18,4 km/h
09.02.2016 15:00 13,3 C 63 % 988,0 hPa 0,0 l/m 12,3 km/h W-SW 6,4 C 10,2 C 6,8 km/h
09.02.2016 16:00 13,1 C 61 % 987,0 hPa 0,0 l/m 19,4 km/h W 5,8 C 7,5 C 10,8 km/h
09.02.2016 17:00 11,5 C 69 % 987,6 hPa 0,0 l/m 33,0 km/h W-SW 6,0 C 2,2 C 18,4 km/h
09.02.2016 18:00 9,4 C 79 % 989,7 hPa 0,8 l/m 21,4 km/h W-SW 5,9 C 2,1 C 11,9 km/h
09.02.2016 19:00 8,8 C 72 % 990,5 hPa 0,0 l/m 20,7 km/h W-NW 4,0 C 1,5 C 11,5 km/h
09.02.2016 20:00 4,9 C 81 % 992,5 hPa 0,4 l/m 17,5 km/h W 1,9 C -2,2 C 9,7 km/h
09.02.2016 21:00 5,2 C 80 % 992,2 hPa 0,0 l/m 0,0 km/h W-NW 2,0 C 5,2 C 0,0 km/h
09.02.2016 22:00 5,2 C 77 % 994,1 hPa 0,0 l/m 25,3 km/h W 1,5 C -4,8 C 14,0 km/h
09.02.2016 23:00 4,7 C 74 % 994,9 hPa 0,0 l/m 18,8 km/h W-NW 0,5 C -3,1 C 10,4 km/h
10.02.2016 00:00 4,4 C 74 % 994,8 hPa 0,0 l/m 42,8 km/h W-SW 0,2 C -9,9 C 23,8 km/h
10.02.2016 01:00 4,3 C 75 % 994,8 hPa 0,0 l/m 13,6 km/h W-SW 0,3 C -1,0 C 7,6 km/h
10.02.2016 02:00 3,6 C 80 % 994,9 hPa 0,0 l/m 42,1 km/h W 0,5 C -11,0 C 23,4 km/h
10.02.2016 03:00 2,4 C 86 % 995,2 hPa 0,0 l/m 20,1 km/h W 0,3 C -6,6 C 11,2 km/h
10.02.2016 04:00 2,5 C 86 % 995,8 hPa 0,0 l/m 9,7 km/h W 0,4 C -0,5 C 5,4 km/h
10.02.2016 05:00 2,3 C 88 % 996,1 hPa 0,0 l/m 35,6 km/h SW 0,5 C -11,6 C 19,8 km/h
10.02.2016 06:00 2,0 C 88 % 997,2 hPa 0,4 l/m 30,5 km/h NW 0,2 C -10,7 C 16,9 km/h
10.02.2016 07:00 2,4 C 88 % 997,9 hPa 0,0 l/m 16,2 km/h SW 0,6 C -4,7 C 9,0 km/h
10.02.2016 08:00 3,2 C 86 % 998,3 hPa 0,0 l/m 33,0 km/h S 1,1 C -9,7 C 18,4 km/h
10.02.2016 09:00 4,6 C 78 % 998,4 hPa 0,0 l/m 36,9 km/h W-SW 1,1 C -8,5 C 20,5 km/h
10.02.2016 10:00 4,3 C 77 % 998,8 hPa 0,0 l/m 16,2 km/h W-SW 0,6 C -2,4 C 9,0 km/h
10.02.2016 11:00 3,5 C 80 % 999,6 hPa 0,0 l/m 20,7 km/h W-NW 0,4 C -5,4 C 11,5 km/h
10.02.2016 12:00 2,8 C 86 % 999,5 hPa 0,4 l/m 17,5 km/h W 0,7 C -4,9 C 9,7 km/h
10.02.2016 13:00 4,8 C 78 % 999,2 hPa 0,0 l/m 23,3 km/h W 1,3 C -4,7 C 13,0 km/h
10.02.2016 14:00 5,9 C 72 % 999,4 hPa 0,0 l/m 18,1 km/h W-SW 1,2 C -1,2 C 10,1 km/h
10.02.2016 15:00 5,1 C 74 % 1000,1 hPa 0,0 l/m 17,5 km/h W 0,9 C -2,0 C 9,7 km/h
10.02.2016 16:00 5,2 C 73 % 1000,3 hPa 0,0 l/m 18,8 km/h W 0,8 C -2,4 C 10,4 km/h
10.02.2016 17:00 5,1 C 72 % 1000,7 hPa 0,0 l/m 18,8 km/h SW 0,5 C -2,6 C 10,4 km/h
10.02.2016 18:00 4,4 C 74 % 1001,7 hPa 0,0 l/m 7,8 km/h W 0,2 C 3,1 C 4,3 km/h
10.02.2016 19:00 4,8 C 70 % 1002,3 hPa 0,0 l/m 0,6 km/h W-SW -0,2 C 4,8 C 0,4 km/h
10.02.2016 20:00 4,9 C 70 % 1002,5 hPa 0,0 l/m 6,5 km/h W -0,1 C 4,8 C 3,6 km/h
10.02.2016 21:00 4,4 C 72 % 1003,4 hPa 0,0 l/m 16,8 km/h W -0,2 C -2,5 C 9,4 km/h
10.02.2016 22:00 4,2 C 73 % 1003,9 hPa 0,0 l/m 21,4 km/h W -0,2 C -4,8 C 11,9 km/h
10.02.2016 23:00 3,9 C 74 % 1004,3 hPa 0,0 l/m 22,0 km/h W-SW -0,3 C -5,4 C 12,2 km/h
11.02.2016 00:00 3,8 C 76 % 1004,5 hPa 0,0 l/m 25,3 km/h W-SW -0,0 C -6,7 C 14,0 km/h
11.02.2016 01:00 3,7 C 78 % 1004,7 hPa 0,0 l/m 14,3 km/h SW 0,2 C -2,1 C 7,9 km/h
11.02.2016 02:00 3,6 C 79 % 1005,3 hPa 0,0 l/m 31,8 km/h W-SW 0,3 C -8,8 C 17,6 km/h
11.02.2016 03:00 3,7 C 79 % 1005,5 hPa 0,0 l/m 25,3 km/h W-SW 0,4 C -6,8 C 14,0 km/h
11.02.2016 04:00 3,4 C 80 % 1005,9 hPa 0,0 l/m 15,6 km/h SW 0,3 C -3,2 C 8,6 km/h
11.02.2016 05:00 3,5 C 80 % 1005,9 hPa 0,0 l/m 22,7 km/h SW 0,4 C -6,2 C 12,6 km/h
11.02.2016 06:00 3,6 C 79 % 1005,9 hPa 0,0 l/m 24,0 km/h W-SW 0,3 C -6,5 C 13,3 km/h
11.02.2016 07:00 3,8 C 79 % 1006,1 hPa 0,0 l/m 25,9 km/h SW 0,5 C -6,9 C 14,4 km/h
11.02.2016 08:00 3,9 C 77 % 1006,4 hPa 0,0 l/m 18,8 km/h W 0,2 C -4,1 C 10,4 km/h
11.02.2016 09:00 4,4 C 76 % 1006,8 hPa 0,0 l/m 9,7 km/h SW 0,5 C 1,6 C 5,4 km/h
11.02.2016 10:00 4,8 C 75 % 1007,0 hPa 0,0 l/m 3,9 km/h W 0,8 C 4,8 C 2,2 km/h
11.02.2016 11:00 5,3 C 75 % 1007,0 hPa 0,0 l/m 18,8 km/h W-SW 1,2 C -2,3 C 10,4 km/h
11.02.2016 12:00 8,1 C 69 % 1006,2 hPa 0,0 l/m 11,7 km/h S-SW 2,8 C 4,5 C 6,5 km/h
11.02.2016 13:00 10,2 C 56 % 1005,4 hPa 0,0 l/m 15,6 km/h W-NW 1,8 C 5,1 C 8,6 km/h
11.02.2016 14:00 7,8 C 61 % 1004,9 hPa 0,0 l/m 0,0 km/h W 0,8 C 7,8 C 0,0 km/h
11.02.2016 15:00 8,1 C 59 % 1004,6 hPa 0,0 l/m 0,0 km/h W 0,6 C 8,1 C 0,0 km/h
11.02.2016 16:00 6,6 C 62 % 1004,4 hPa 0,0 l/m 0,0 km/h W -0,1 C 6,6 C 0,0 km/h
11.02.2016 17:00 4,5 C 67 % 1004,3 hPa 0,0 l/m 0,0 km/h W -1,1 C 4,5 C 0,0 km/h
11.02.2016 18:00 2,6 C 74 % 1004,6 hPa 0,0 l/m 0,0 km/h S-SW -1,6 C 2,6 C 0,0 km/h
11.02.2016 19:00 2,1 C 77 % 1004,5 hPa 0,0 l/m 0,0 km/h SO -1,5 C 2,1 C 0,0 km/h
11.02.2016 20:00 2,1 C 80 % 1004,6 hPa 0,0 l/m 0,0 km/h SO -1,0 C 2,1 C 0,0 km/h
11.02.2016 21:00 1,8 C 81 % 1004,7 hPa 0,0 l/m 0,0 km/h SO -1,1 C 1,8 C 0,0 km/h
11.02.2016 22:00 1,9 C 83 % 1004,6 hPa 0,0 l/m 0,0 km/h S-SO -0,7 C 1,9 C 0,0 km/h
11.02.2016 23:00 1,9 C 84 % 1004,6 hPa 0,0 l/m 0,0 km/h SO -0,5 C 1,9 C 0,0 km/h
12.02.2016 00:00 1,9 C 85 % 1004,5 hPa 0,0 l/m 0,0 km/h SO -0,3 C 1,9 C 0,0 km/h
12.02.2016 01:00 1,9 C 86 % 1004,0 hPa 0,0 l/m 1,3 km/h SO -0,2 C 1,9 C 0,7 km/h
12.02.2016 02:00 1,9 C 86 % 1004,0 hPa 0,0 l/m 0,0 km/h W -0,2 C 1,9 C 0,0 km/h
12.02.2016 03:00 2,1 C 87 % 1004,0 hPa 0,0 l/m 0,0 km/h W-SW 0,2 C 2,1 C 0,0 km/h
12.02.2016 04:00 1,3 C 87 % 1003,8 hPa 0,4 l/m 0,0 km/h W-SW -0,6 C 1,3 C 0,0 km/h
12.02.2016 05:00 0,4 C 88 % 1003,2 hPa 0,0 l/m 0,0 km/h W-SW -1,3 C 0,4 C 0,0 km/h
12.02.2016 06:00 0,7 C 88 % 1002,9 hPa 0,0 l/m 0,0 km/h W-SW -1,1 C 0,7 C 0,0 km/h
12.02.2016 07:00 -0,5 C 88 % 1001,9 hPa 0,0 l/m 0,0 km/h S-SW -2,2 C -0,5 C 0,0 km/h
12.02.2016 08:00 0,9 C 88 % 1000,6 hPa 0,0 l/m 0,0 km/h S-SO -0,9 C 0,9 C 0,0 km/h
12.02.2016 09:00 6,9 C 82 % 999,5 hPa 0,0 l/m 4,5 km/h S-SO 4,0 C 6,9 C 2,5 km/h
12.02.2016 10:00 12,7 C 68 % 998,5 hPa 0,0 l/m 0,0 km/h S-SO 6,9 C 12,7 C 0,0 km/h
12.02.2016 11:00 14,7 C 53 % 997,3 hPa 0,0 l/m 0,0 km/h S-SO 5,2 C 14,7 C 0,0 km/h
12.02.2016 12:00 11,4 C 54 % 995,6 hPa 0,0 l/m 22,7 km/h S-SO 2,4 C 4,3 C 12,6 km/h
12.02.2016 13:00 8,9 C 58 % 994,1 hPa 0,0 l/m 20,7 km/h S-SO 1,1 C 1,6 C 11,5 km/h
12.02.2016 14:00 7,3 C 62 % 992,5 hPa 0,0 l/m 14,9 km/h S-SO 0,5 C 1,9 C 8,3 km/h
12.02.2016 15:00 6,5 C 65 % 992,0 hPa 0,0 l/m 21,4 km/h S-SO 0,4 C -1,7 C 11,9 km/h
12.02.2016 16:00 5,3 C 72 % 992,3 hPa 0,0 l/m 0,0 km/h S-SO 0,7 C 5,3 C 0,0 km/h
12.02.2016 17:00 3,9 C 79 % 991,7 hPa 0,4 l/m 0,0 km/h O-NO 0,6 C 3,9 C 0,0 km/h
12.02.2016 18:00 3,9 C 80 % 991,4 hPa 0,0 l/m 0,0 km/h W-SW 0,8 C 3,9 C 0,0 km/h
12.02.2016 19:00 3,3 C 86 % 991,3 hPa 0,4 l/m 0,0 km/h N-NW 1,2 C 3,3 C 0,0 km/h
12.02.2016 20:00 3,0 C 87 % 991,0 hPa 0,0 l/m 0,0 km/h N-NW 1,1 C 3,0 C 0,0 km/h
12.02.2016 21:00 2,8 C 88 % 990,8 hPa 0,0 l/m 0,0 km/h W-NW 1,0 C 2,8 C 0,0 km/h
12.02.2016 22:00 2,6 C 88 % 990,9 hPa 0,0 l/m 0,0 km/h W-NW 0,8 C 2,6 C 0,0 km/h
12.02.2016 23:00 2,6 C 88 % 991,0 hPa 0,0 l/m 0,0 km/h W-NW 0,8 C 2,6 C 0,0 km/h
13.02.2016 00:00 2,5 C 88 % 991,4 hPa 0,0 l/m 0,0 km/h W-NW 0,7 C 2,5 C 0,0 km/h
13.02.2016 01:00 2,9 C 88 % 991,5 hPa 0,0 l/m 0,0 km/h NW 1,1 C 2,9 C 0,0 km/h
13.02.2016 02:00 3,2 C 88 % 992,0 hPa 0,0 l/m 0,0 km/h NW 1,4 C 3,2 C 0,0 km/h
13.02.2016 03:00 3,3 C 88 % 992,1 hPa 0,0 l/m 0,0 km/h NW 1,5 C 3,3 C 0,0 km/h
13.02.2016 04:00 3,4 C 88 % 992,3 hPa 0,0 l/m 0,0 km/h NW 1,6 C 3,4 C 0,0 km/h
13.02.2016 05:00 3,3 C 88 % 992,6 hPa 0,0 l/m 0,0 km/h O-NO 1,5 C 3,3 C 0,0 km/h
13.02.2016 06:00 3,8 C 88 % 992,1 hPa 0,0 l/m 0,0 km/h SW 2,0 C 3,8 C 0,0 km/h
13.02.2016 07:00 5,6 C 88 % 991,8 hPa 0,0 l/m 10,4 km/h SW 3,8 C 2,5 C 5,8 km/h
13.02.2016 08:00 6,2 C 87 % 991,9 hPa 0,0 l/m 9,7 km/h S-SW 4,2 C 3,6 C 5,4 km/h
13.02.2016 09:00 6,7 C 86 % 991,1 hPa 0,0 l/m 5,2 km/h W 4,5 C 6,7 C 2,9 km/h
13.02.2016 10:00 7,8 C 80 % 990,4 hPa 0,0 l/m 0,0 km/h W 4,6 C 7,8 C 0,0 km/h
13.02.2016 11:00 8,3 C 76 % 989,8 hPa 0,0 l/m 33,0 km/h SW 4,3 C -2,4 C 18,4 km/h
13.02.2016 12:00 9,1 C 73 % 988,4 hPa 0,0 l/m 0,0 km/h S 4,5 C 9,1 C 0,0 km/h
13.02.2016 13:00 9,6 C 68 % 986,8 hPa 0,0 l/m 0,6 km/h W-SW 4,0 C 9,6 C 0,4 km/h
13.02.2016 14:00 10,4 C 67 % 985,8 hPa 0,0 l/m 26,6 km/h S-SW 4,5 C 2,0 C 14,8 km/h
13.02.2016 15:00 10,2 C 69 % 984,8 hPa 0,0 l/m 20,7 km/h S 4,8 C 3,3 C 11,5 km/h
13.02.2016 16:00 7,6 C 83 % 985,1 hPa 0,8 l/m 16,8 km/h W-NW 4,9 C 1,4 C 9,4 km/h
13.02.2016 17:00 8,9 C 77 % 985,0 hPa 0,0 l/m 22,7 km/h W-SW 5,1 C 1,0 C 12,6 km/h
13.02.2016 18:00 8,3 C 76 % 985,2 hPa 0,0 l/m 38,9 km/h W 4,3 C -3,5 C 21,6 km/h
13.02.2016 19:00 7,9 C 82 % 984,8 hPa 0,0 l/m 16,2 km/h W-SW 5,0 C 2,1 C 9,0 km/h
13.02.2016 20:00 8,3 C 83 % 984,2 hPa 0,8 l/m 19,4 km/h W 5,6 C 1,3 C 10,8 km/h
13.02.2016 21:00 8,2 C 83 % 985,3 hPa 0,0 l/m 29,2 km/h W-NW 5,5 C -1,7 C 16,2 km/h
13.02.2016 22:00 7,0 C 88 % 985,3 hPa 1,7 l/m 27,9 km/h W 5,2 C -3,0 C 15,5 km/h
13.02.2016 23:00 8,1 C 84 % 985,5 hPa 0,0 l/m 31,8 km/h S-SW 5,6 C -2,4 C 17,6 km/h
14.02.2016 00:00 8,3 C 80 % 985,9 hPa 0,0 l/m 22,7 km/h S-SW 5,1 C 0,2 C 12,6 km/h
14.02.2016 01:00 8,4 C 76 % 985,6 hPa 0,0 l/m 24,6 km/h SW 4,4 C -0,2 C 13,7 km/h
14.02.2016 02:00 7,8 C 76 % 986,0 hPa 0,0 l/m 16,2 km/h S-SW 3,8 C 1,9 C 9,0 km/h
14.02.2016 03:00 7,9 C 76 % 986,3 hPa 0,0 l/m 22,0 km/h S-SW 3,9 C -0,1 C 12,2 km/h
14.02.2016 04:00 8,1 C 76 % 986,3 hPa 0,0 l/m 22,0 km/h SW 4,1 C 0,2 C 12,2 km/h
14.02.2016 05:00 8,4 C 75 % 986,2 hPa 0,0 l/m 21,4 km/h W 4,2 C 0,7 C 11,9 km/h
14.02.2016 06:00 7,6 C 77 % 985,9 hPa 0,0 l/m 0,0 km/h W-SW 3,8 C 7,6 C 0,0 km/h
14.02.2016 07:00 7,5 C 78 % 985,6 hPa 0,0 l/m 0,0 km/h SW 3,9 C 7,5 C 0,0 km/h
14.02.2016 08:00 7,2 C 80 % 985,4 hPa 0,0 l/m 0,0 km/h S-SW 4,0 C 7,2 C 0,0 km/h
14.02.2016 09:00 6,4 C 84 % 985,9 hPa 0,8 l/m 0,0 km/h S 3,9 C 6,4 C 0,0 km/h
14.02.2016 10:00 6,4 C 86 % 986,7 hPa 0,4 l/m 1,9 km/h S-SO 4,2 C 6,4 C 1,1 km/h
14.02.2016 11:00 6,1 C 87 % 987,8 hPa 1,2 l/m 22,0 km/h S-SW 4,1 C -2,5 C 12,2 km/h
14.02.2016 12:00 5,8 C 88 % 988,4 hPa 0,4 l/m 8,4 km/h W-SW 4,0 C 4,1 C 4,7 km/h
14.02.2016 13:00 6,2 C 87 % 989,0 hPa 0,4 l/m 10,4 km/h W 4,2 C 3,1 C 5,8 km/h
14.02.2016 14:00 6,8 C 85 % 989,7 hPa 0,0 l/m 13,0 km/h W 4,5 C 2,3 C 7,2 km/h
14.02.2016 15:00 6,4 C 84 % 990,7 hPa 0,0 l/m 1,3 km/h W 3,9 C 6,4 C 0,7 km/h
14.02.2016 16:00 5,8 C 86 % 991,7 hPa 0,0 l/m 11,7 km/h W-SW 3,6 C 1,9 C 6,5 km/h
14.02.2016 17:00 5,3 C 87 % 992,5 hPa 0,0 l/m 7,8 km/h S-SW 3,3 C 4,1 C 4,3 km/h
14.02.2016 18:00 5,3 C 86 % 993,4 hPa 0,0 l/m 1,9 km/h S-SW 3,2 C 5,3 C 1,1 km/h
14.02.2016 19:00 5,3 C 87 % 994,1 hPa 0,0 l/m 0,0 km/h S-SW 3,3 C 5,3 C 0,0 km/h
14.02.2016 20:00 5,2 C 86 % 994,7 hPa 0,0 l/m 0,0 km/h W 3,1 C 5,2 C 0,0 km/h
14.02.2016 21:00 4,4 C 86 % 995,4 hPa 0,0 l/m 2,6 km/h S 2,3 C 4,4 C 1,4 km/h
14.02.2016 22:00 4,2 C 87 % 996,2 hPa 0,0 l/m 0,0 km/h NW 2,2 C 4,2 C 0,0 km/h
14.02.2016 23:00 4,6 C 87 % 996,6 hPa 0,0 l/m 0,0 km/h N-NW 2,6 C 4,6 C 0,0 km/h
Min-Datum _ 12.02.16 12.02.16 13.02.16 - 09.02.16 - 12.02.16 10.02.16 09.02.16
_ Min-Zeit 07:42 11:42 20:42 - 07:42 - 07:42 05:42 07:42
Minimum _ -0,5 C 53 % 984,2 hPa - 0,0 km/h - -2,2 C -11,6 C 0,0 km/h
Max-Datum _ 12.02.16 09.02.16 08.02.16 13.02.16 08.02.16 - 09.02.16 12.02.16 08.02.16
_ Max-Zeit 11:42 08:42 00:42 22:42 11:42 - 14:42 11:42 11:42
Maximum _ 14,7 C 88 % 1009,6 hPa 1,7 l/m 64,8 km/h
SW
- 7,4 C 14,7 C 36,0 km/h
SW
Durchschnitt _ 6,3 C 78 % 997,3 hPa #16,6 l/m 14,8 km/h W 2,7 C 1,4 C 8,2 km/h
www.sexauwetter.de